sensor_id;sensor_type;location;lat;lon;timestamp;pressure;altitude;pressure_sealevel;temperature;humidity
52949;BME280;38812;50.942;3.644;2023-06-22T00:01:54;101859.53;;;16.62;100.00
52949;BME280;38812;50.942;3.644;2023-06-22T00:04:19;101853.34;;;16.62;100.00
52949;BME280;38812;50.942;3.644;2023-06-22T00:06:45;101845.31;;;16.66;100.00
52949;BME280;38812;50.942;3.644;2023-06-22T00:09:10;101844.44;;;16.66;100.00
52949;BME280;38812;50.942;3.644;2023-06-22T00:11:39;101832.94;;;16.65;100.00
52949;BME280;38812;50.942;3.644;2023-06-22T00:14:04;101830.63;;;16.53;100.00
52949;BME280;38812;50.942;3.644;2023-06-22T00:16:32;101828.34;;;16.41;100.00
52949;BME280;38812;50.942;3.644;2023-06-22T00:18:58;101810.03;;;16.32;100.00
52949;BME280;38812;50.942;3.644;2023-06-22T00:21:26;101820.78;;;16.27;100.00
52949;BME280;38812;50.942;3.644;2023-06-22T00:23:51;101821.06;;;16.18;100.00
52949;BME280;38812;50.942;3.644;2023-06-22T00:26:17;101820.53;;;16.05;100.00
52949;BME280;38812;50.942;3.644;2023-06-22T00:28:42;101818.22;;;15.93;100.00
52949;BME280;38812;50.942;3.644;2023-06-22T00:31:08;101818.69;;;16.07;100.00
52949;BME280;38812;50.942;3.644;2023-06-22T00:33:33;101823.31;;;16.01;100.00
52949;BME280;38812;50.942;3.644;2023-06-22T00:35:59;101823.41;;;15.98;100.00
52949;BME280;38812;50.942;3.644;2023-06-22T00:38:24;101816.88;;;16.09;100.00
52949;BME280;38812;50.942;3.644;2023-06-22T00:40:49;101832.63;;;16.16;100.00
52949;BME280;38812;50.942;3.644;2023-06-22T00:43:15;101834.69;;;16.04;100.00
52949;BME280;38812;50.942;3.644;2023-06-22T00:45:40;101832.78;;;16.09;100.00
52949;BME280;38812;50.942;3.644;2023-06-22T00:48:07;101834.53;;;16.10;100.00
52949;BME280;38812;50.942;3.644;2023-06-22T00:50:33;101830.66;;;16.22;100.00
52949;BME280;38812;50.942;3.644;2023-06-22T00:53:08;101820.66;;;16.32;100.00
52949;BME280;38812;50.942;3.644;2023-06-22T00:55:35;101828.38;;;16.08;100.00
52949;BME280;38812;50.942;3.644;2023-06-22T00:58:03;101834.78;;;16.01;100.00
52949;BME280;38812;50.942;3.644;2023-06-22T01:00:31;101818.81;;;16.03;100.00
52949;BME280;38812;50.942;3.644;2023-06-22T01:02:58;101820.28;;;16.15;100.00
52949;BME280;38812;50.942;3.644;2023-06-22T01:05:23;101817.44;;;16.21;100.00
52949;BME280;38812;50.942;3.644;2023-06-22T01:13:02;101831.91;;;15.78;100.00
52949;BME280;38812;50.942;3.644;2023-06-22T01:15:49;101827.38;;;15.82;100.00
52949;BME280;38812;50.942;3.644;2023-06-22T01:18:17;101826.00;;;15.67;100.00
52949;BME280;38812;50.942;3.644;2023-06-22T01:20:44;101823.63;;;15.58;100.00
52949;BME280;38812;50.942;3.644;2023-06-22T01:26:15;101823.91;;;15.80;100.00
52949;BME280;38812;50.942;3.644;2023-06-22T01:28:47;101827.00;;;15.63;100.00
52949;BME280;38812;50.942;3.644;2023-06-22T01:31:20;101832.22;;;15.66;100.00
52949;BME280;38812;50.942;3.644;2023-06-22T01:33:51;101824.50;;;15.58;100.00
52949;BME280;38812;50.942;3.644;2023-06-22T01:36:17;101824.78;;;15.44;100.00
52949;BME280;38812;50.942;3.644;2023-06-22T01:38:44;101816.13;;;15.38;100.00
52949;BME280;38812;50.942;3.644;2023-06-22T01:41:10;101832.59;;;15.51;100.00
52949;BME280;38812;50.942;3.644;2023-06-22T01:43:36;101826.69;;;15.39;100.00
52949;BME280;38812;50.942;3.644;2023-06-22T01:46:04;101826.19;;;15.59;100.00
52949;BME280;38812;50.942;3.644;2023-06-22T01:48:30;101811.69;;;15.38;100.00
52949;BME280;38812;50.942;3.644;2023-06-22T01:50:56;101811.97;;;15.29;100.00
52949;BME280;38812;50.942;3.644;2023-06-22T01:53:23;101829.34;;;15.39;100.00
52949;BME280;38812;50.942;3.644;2023-06-22T01:55:49;101822.47;;;15.32;100.00
52949;BME280;38812;50.942;3.644;2023-06-22T01:58:15;101830.34;;;15.35;100.00
52949;BME280;38812;50.942;3.644;2023-06-22T02:00:44;101840.22;;;15.29;100.00
52949;BME280;38812;50.942;3.644;2023-06-22T02:03:19;101842.84;;;15.29;100.00
52949;BME280;38812;50.942;3.644;2023-06-22T02:05:54;101841.66;;;15.05;100.00
52949;BME280;38812;50.942;3.644;2023-06-22T02:08:28;101837.59;;;14.92;100.00
52949;BME280;38812;50.942;3.644;2023-06-22T02:10:56;101847.44;;;14.85;100.00
52949;BME280;38812;50.942;3.644;2023-06-22T02:13:24;101842.50;;;15.07;100.00
52949;BME280;38812;50.942;3.644;2023-06-22T02:15:50;101836.44;;;15.02;100.00
52949;BME280;38812;50.942;3.644;2023-06-22T02:18:15;101831.53;;;15.22;100.00
52949;BME280;38812;50.942;3.644;2023-06-22T02:20:41;101833.66;;;15.08;100.00
52949;BME280;38812;50.942;3.644;2023-06-22T02:23:06;101837.22;;;15.07;100.00
52949;BME280;38812;50.942;3.644;2023-06-22T02:25:32;101833.88;;;14.99;100.00
52949;BME280;38812;50.942;3.644;2023-06-22T02:27:58;101833.41;;;14.82;100.00
52949;BME280;38812;50.942;3.644;2023-06-22T02:30:23;101839.59;;;14.81;100.00
52949;BME280;38812;50.942;3.644;2023-06-22T02:32:49;101836.03;;;14.82;100.00
52949;BME280;38812;50.942;3.644;2023-06-22T02:35:14;101836.97;;;14.79;100.00
52949;BME280;38812;50.942;3.644;2023-06-22T02:37:40;101837.97;;;14.73;100.00
52949;BME280;38812;50.942;3.644;2023-06-22T02:40:10;101825.53;;;14.79;100.00
52949;BME280;38812;50.942;3.644;2023-06-22T02:42:39;101825.03;;;14.61;100.00
52949;BME280;38812;50.942;3.644;2023-06-22T02:45:04;101823.94;;;14.71;100.00
52949;BME280;38812;50.942;3.644;2023-06-22T02:47:30;101819.72;;;14.63;100.00
52949;BME280;38812;50.942;3.644;2023-06-22T02:49:55;101813.44;;;14.68;100.00
52949;BME280;38812;50.942;3.644;2023-06-22T02:52:21;101824.31;;;14.53;100.00
52949;BME280;38812;50.942;3.644;2023-06-22T02:54:46;101822.75;;;14.46;100.00
52949;BME280;38812;50.942;3.644;2023-06-22T02:57:11;101811.38;;;14.39;100.00
52949;BME280;38812;50.942;3.644;2023-06-22T02:59:40;101813.94;;;14.46;100.00
52949;BME280;38812;50.942;3.644;2023-06-22T03:02:07;101816.69;;;14.41;100.00
52949;BME280;38812;50.942;3.644;2023-06-22T03:04:33;101815.81;;;14.39;100.00
52949;BME280;38812;50.942;3.644;2023-06-22T03:06:58;101830.75;;;14.42;100.00
52949;BME280;38812;50.942;3.644;2023-06-22T03:09:26;101816.53;;;14.49;100.00
52949;BME280;38812;50.942;3.644;2023-06-22T03:11:53;101813.69;;;14.56;100.00
52949;BME280;38812;50.942;3.644;2023-06-22T03:14:18;101804.16;;;14.49;100.00
52949;BME280;38812;50.942;3.644;2023-06-22T03:16:44;101814.06;;;14.38;100.00
52949;BME280;38812;50.942;3.644;2023-06-22T03:19:09;101816.84;;;14.30;100.00
52949;BME280;38812;50.942;3.644;2023-06-22T03:21:36;101816.13;;;14.24;100.00
52949;BME280;38812;50.942;3.644;2023-06-22T03:24:04;101821.47;;;14.21;100.00
52949;BME280;38812;50.942;3.644;2023-06-22T03:26:30;101817.16;;;14.17;100.00
52949;BME280;38812;50.942;3.644;2023-06-22T03:28:55;101818.94;;;14.15;100.00
52949;BME280;38812;50.942;3.644;2023-06-22T03:31:22;101830.31;;;14.20;100.00
52949;BME280;38812;50.942;3.644;2023-06-22T03:33:48;101819.78;;;14.17;100.00
52949;BME280;38812;50.942;3.644;2023-06-22T03:36:15;101826.72;;;14.22;100.00
52949;BME280;38812;50.942;3.644;2023-06-22T03:38:47;101832.16;;;14.15;100.00
52949;BME280;38812;50.942;3.644;2023-06-22T03:41:13;101825.06;;;14.17;100.00
52949;BME280;38812;50.942;3.644;2023-06-22T03:43:38;101834.66;;;14.22;100.00
52949;BME280;38812;50.942;3.644;2023-06-22T03:46:04;101818.06;;;14.16;100.00
52949;BME280;38812;50.942;3.644;2023-06-22T03:48:29;101838.97;;;14.28;100.00
52949;BME280;38812;50.942;3.644;2023-06-22T03:50:55;101827.63;;;14.21;100.00
52949;BME280;38812;50.942;3.644;2023-06-22T03:53:20;101836.81;;;14.48;100.00
52949;BME280;38812;50.942;3.644;2023-06-22T03:55:52;101827.16;;;14.46;100.00
52949;BME280;38812;50.942;3.644;2023-06-22T03:58:19;101827.13;;;14.47;100.00
52949;BME280;38812;50.942;3.644;2023-06-22T04:00:48;101825.34;;;14.48;100.00
52949;BME280;38812;50.942;3.644;2023-06-22T04:03:14;101834.25;;;14.44;100.00
52949;BME280;38812;50.942;3.644;2023-06-22T04:05:40;101835.06;;;14.47;100.00
52949;BME280;38812;50.942;3.644;2023-06-22T04:08:06;101829.72;;;14.50;100.00
52949;BME280;38812;50.942;3.644;2023-06-22T04:10:31;101839.28;;;14.54;100.00
52949;BME280;38812;50.942;3.644;2023-06-22T04:12:57;101839.00;;;14.68;100.00
52949;BME280;38812;50.942;3.644;2023-06-22T04:15:22;101824.50;;;14.86;100.00
52949;BME280;38812;50.942;3.644;2023-06-22T04:17:48;101816.19;;;15.01;100.00
52949;BME280;38812;50.942;3.644;2023-06-22T04:20:13;101810.75;;;15.07;100.00
52949;BME280;38812;50.942;3.644;2023-06-22T04:22:39;101799.38;;;15.03;100.00
52949;BME280;38812;50.942;3.644;2023-06-22T04:25:05;101789.41;;;15.15;100.00
52949;BME280;38812;50.942;3.644;2023-06-22T04:27:33;101770.28;;;15.02;100.00
52949;BME280;38812;50.942;3.644;2023-06-22T04:30:03;101785.88;;;15.14;100.00
52949;BME280;38812;50.942;3.644;2023-06-22T04:32:28;101782.69;;;15.35;100.00
52949;BME280;38812;50.942;3.644;2023-06-22T04:34:54;101776.56;;;15.33;100.00
52949;BME280;38812;50.942;3.644;2023-06-22T04:37:19;101773.31;;;15.22;100.00
52949;BME280;38812;50.942;3.644;2023-06-22T04:39:48;101766.81;;;15.35;100.00
52949;BME280;38812;50.942;3.644;2023-06-22T04:42:14;101774.47;;;15.44;100.00
52949;BME280;38812;50.942;3.644;2023-06-22T04:44:39;101771.78;;;15.46;100.00
52949;BME280;38812;50.942;3.644;2023-06-22T04:47:05;101770.69;;;15.55;100.00
52949;BME280;38812;50.942;3.644;2023-06-22T04:49:34;101770.31;;;15.70;100.00
52949;BME280;38812;50.942;3.644;2023-06-22T04:52:05;101761.28;;;15.77;100.00
52949;BME280;38812;50.942;3.644;2023-06-22T04:54:31;101766.22;;;15.89;100.00
52949;BME280;38812;50.942;3.644;2023-06-22T04:56:59;101764.81;;;16.07;100.00
52949;BME280;38812;50.942;3.644;2023-06-22T04:59:26;101763.59;;;16.19;100.00
52949;BME280;38812;50.942;3.644;2023-06-22T05:01:54;101761.34;;;16.34;100.00
52949;BME280;38812;50.942;3.644;2023-06-22T05:04:19;101759.91;;;16.52;100.00
52949;BME280;38812;50.942;3.644;2023-06-22T05:06:45;101760.09;;;16.75;100.00
52949;BME280;38812;50.942;3.644;2023-06-22T05:09:10;101763.47;;;17.07;100.00
52949;BME280;38812;50.942;3.644;2023-06-22T05:11:37;101757.22;;;17.34;100.00
52949;BME280;38812;50.942;3.644;2023-06-22T05:14:03;101748.91;;;17.70;100.00
52949;BME280;38812;50.942;3.644;2023-06-22T05:16:28;101754.09;;;18.43;100.00
52949;BME280;38812;50.942;3.644;2023-06-22T05:18:54;101756.78;;;19.08;100.00
52949;BME280;38812;50.942;3.644;2023-06-22T05:21:22;101748.66;;;19.11;100.00
52949;BME280;38812;50.942;3.644;2023-06-22T05:23:48;101754.69;;;19.37;100.00
52949;BME280;38812;50.942;3.644;2023-06-22T05:26:14;101752.97;;;19.95;100.00
52949;BME280;38812;50.942;3.644;2023-06-22T05:28:39;101752.84;;;19.98;100.00
52949;BME280;38812;50.942;3.644;2023-06-22T05:31:04;101748.50;;;19.96;100.00
52949;BME280;38812;50.942;3.644;2023-06-22T05:33:30;101744.88;;;19.17;100.00
52949;BME280;38812;50.942;3.644;2023-06-22T05:35:55;101746.00;;;19.11;100.00
52949;BME280;38812;50.942;3.644;2023-06-22T05:38:21;101754.59;;;19.18;100.00
52949;BME280;38812;50.942;3.644;2023-06-22T05:40:46;101757.13;;;19.01;100.00
52949;BME280;38812;50.942;3.644;2023-06-22T05:43:11;101752.03;;;18.73;100.00
52949;BME280;38812;50.942;3.644;2023-06-22T05:45:37;101741.75;;;18.86;100.00
52949;BME280;38812;50.942;3.644;2023-06-22T05:48:02;101746.59;;;18.76;100.00
52949;BME280;38812;50.942;3.644;2023-06-22T05:50:28;101738.56;;;18.77;100.00
52949;BME280;38812;50.942;3.644;2023-06-22T05:52:53;101732.44;;;18.75;100.00
52949;BME280;38812;50.942;3.644;2023-06-22T05:55:18;101740.16;;;18.81;100.00
52949;BME280;38812;50.942;3.644;2023-06-22T05:57:44;101747.22;;;18.82;100.00
52949;BME280;38812;50.942;3.644;2023-06-22T06:00:10;101729.47;;;18.83;100.00
52949;BME280;38812;50.942;3.644;2023-06-22T06:02:36;101734.53;;;19.09;100.00
52949;BME280;38812;50.942;3.644;2023-06-22T06:05:02;101725.19;;;19.21;100.00
52949;BME280;38812;50.942;3.644;2023-06-22T06:07:28;101721.97;;;19.33;100.00
52949;BME280;38812;50.942;3.644;2023-06-22T06:09:54;101707.31;;;19.43;100.00
52949;BME280;38812;50.942;3.644;2023-06-22T06:12:20;101710.13;;;19.61;100.00
52949;BME280;38812;50.942;3.644;2023-06-22T06:14:45;101704.59;;;19.65;100.00
52949;BME280;38812;50.942;3.644;2023-06-22T06:17:10;101705.53;;;19.83;100.00
52949;BME280;38812;50.942;3.644;2023-06-22T06:19:36;101698.47;;;19.82;100.00
52949;BME280;38812;50.942;3.644;2023-06-22T06:22:01;101698.06;;;19.91;100.00
52949;BME280;38812;50.942;3.644;2023-06-22T06:24:27;101694.09;;;20.00;100.00
52949;BME280;38812;50.942;3.644;2023-06-22T06:26:52;101684.34;;;19.99;100.00
52949;BME280;38812;50.942;3.644;2023-06-22T06:29:17;101685.22;;;20.18;100.00
52949;BME280;38812;50.942;3.644;2023-06-22T06:31:43;101687.53;;;20.26;100.00
52949;BME280;38812;50.942;3.644;2023-06-22T06:34:08;101691.28;;;20.40;100.00
52949;BME280;38812;50.942;3.644;2023-06-22T06:36:33;101675.84;;;20.47;100.00
52949;BME280;38812;50.942;3.644;2023-06-22T06:38:59;101684.16;;;20.77;100.00
52949;BME280;38812;50.942;3.644;2023-06-22T06:41:24;101687.44;;;20.82;100.00
52949;BME280;38812;50.942;3.644;2023-06-22T06:43:50;101679.75;;;20.93;100.00
52949;BME280;38812;50.942;3.644;2023-06-22T06:46:15;101680.13;;;21.03;100.00
52949;BME280;38812;50.942;3.644;2023-06-22T06:48:40;101676.44;;;21.23;100.00
52949;BME280;38812;50.942;3.644;2023-06-22T06:51:06;101660.19;;;21.10;100.00
52949;BME280;38812;50.942;3.644;2023-06-22T06:53:35;101671.66;;;21.29;100.00
52949;BME280;38812;50.942;3.644;2023-06-22T06:56:00;101671.31;;;21.52;100.00
52949;BME280;38812;50.942;3.644;2023-06-22T06:58:26;101664.38;;;21.81;100.00
52949;BME280;38812;50.942;3.644;2023-06-22T07:00:51;101669.91;;;21.94;100.00
52949;BME280;38812;50.942;3.644;2023-06-22T07:03:16;101663.91;;;22.22;100.00
52949;BME280;38812;50.942;3.644;2023-06-22T07:05:42;101653.63;;;22.46;100.00
52949;BME280;38812;50.942;3.644;2023-06-22T07:08:07;101653.84;;;22.57;100.00
52949;BME280;38812;50.942;3.644;2023-06-22T07:10:33;101655.34;;;22.77;100.00
52949;BME280;38812;50.942;3.644;2023-06-22T07:12:58;101644.25;;;22.99;100.00
52949;BME280;38812;50.942;3.644;2023-06-22T07:15:24;101641.00;;;23.08;100.00
52949;BME280;38812;50.942;3.644;2023-06-22T07:17:49;101631.34;;;23.19;100.00
52949;BME280;38812;50.942;3.644;2023-06-22T07:20:15;101621.59;;;23.18;100.00
52949;BME280;38812;50.942;3.644;2023-06-22T07:22:43;101629.34;;;23.23;100.00
52949;BME280;38812;50.942;3.644;2023-06-22T07:25:10;101624.00;;;23.23;100.00
52949;BME280;38812;50.942;3.644;2023-06-22T07:27:39;101612.13;;;23.27;100.00
52949;BME280;38812;50.942;3.644;2023-06-22T07:30:08;101617.88;;;23.35;100.00
52949;BME280;38812;50.942;3.644;2023-06-22T07:32:34;101617.53;;;23.55;100.00
52949;BME280;38812;50.942;3.644;2023-06-22T07:34:59;101614.78;;;23.41;100.00
52949;BME280;38812;50.942;3.644;2023-06-22T07:37:25;101614.78;;;23.41;100.00
52949;BME280;38812;50.942;3.644;2023-06-22T07:39:52;101623.22;;;23.07;100.00
52949;BME280;38812;50.942;3.644;2023-06-22T07:42:19;101617.84;;;22.93;100.00
52949;BME280;38812;50.942;3.644;2023-06-22T07:44:44;101613.19;;;22.80;100.00
52949;BME280;38812;50.942;3.644;2023-06-22T07:47:10;101627.69;;;22.92;100.00
52949;BME280;38812;50.942;3.644;2023-06-22T07:49:35;101628.31;;;22.81;100.00
52949;BME280;38812;50.942;3.644;2023-06-22T07:52:00;101633.91;;;22.93;100.00
52949;BME280;38812;50.942;3.644;2023-06-22T07:54:27;101621.47;;;22.92;100.00
52949;BME280;38812;50.942;3.644;2023-06-22T07:56:52;101631.78;;;22.98;100.00
52949;BME280;38812;50.942;3.644;2023-06-22T07:59:17;101629.69;;;22.88;100.00
52949;BME280;38812;50.942;3.644;2023-06-22T08:01:43;101617.59;;;22.81;100.00
52949;BME280;38812;50.942;3.644;2023-06-22T08:04:08;101615.81;;;22.66;100.00
52949;BME280;38812;50.942;3.644;2023-06-22T08:06:34;101627.91;;;22.73;100.00
52949;BME280;38812;50.942;3.644;2023-06-22T08:08:59;101619.44;;;22.65;100.00
52949;BME280;38812;50.942;3.644;2023-06-22T08:11:25;101614.28;;;22.62;100.00
52949;BME280;38812;50.942;3.644;2023-06-22T08:13:51;101617.91;;;22.61;100.00
52949;BME280;38812;50.942;3.644;2023-06-22T08:16:16;101610.81;;;22.60;100.00
52949;BME280;38812;50.942;3.644;2023-06-22T08:18:42;101607.50;;;22.41;100.00
52949;BME280;38812;50.942;3.644;2023-06-22T08:21:07;101616.47;;;22.40;100.00
52949;BME280;38812;50.942;3.644;2023-06-22T08:23:32;101617.09;;;22.45;100.00
52949;BME280;38812;50.942;3.644;2023-06-22T08:25:58;101615.19;;;22.47;100.00
52949;BME280;38812;50.942;3.644;2023-06-22T08:28:23;101614.66;;;22.40;100.00
52949;BME280;38812;50.942;3.644;2023-06-22T08:30:49;101609.13;;;22.43;100.00
52949;BME280;38812;50.942;3.644;2023-06-22T08:33:14;101610.09;;;22.42;100.00
52949;BME280;38812;50.942;3.644;2023-06-22T08:35:39;101604.66;;;22.44;100.00
52949;BME280;38812;50.942;3.644;2023-06-22T08:38:05;101609.31;;;22.40;100.00
52949;BME280;38812;50.942;3.644;2023-06-22T08:40:30;101611.72;;;22.45;100.00
52949;BME280;38812;50.942;3.644;2023-06-22T08:42:56;101602.22;;;22.39;100.00
52949;BME280;38812;50.942;3.644;2023-06-22T08:45:21;101619.16;;;22.40;100.00
52949;BME280;38812;50.942;3.644;2023-06-22T08:47:47;101617.78;;;22.33;100.00
52949;BME280;38812;50.942;3.644;2023-06-22T08:50:12;101616.59;;;22.22;100.00
52949;BME280;38812;50.942;3.644;2023-06-22T08:52:39;101630.75;;;22.25;100.00
52949;BME280;38812;50.942;3.644;2023-06-22T08:55:07;101629.03;;;22.23;100.00
52949;BME280;38812;50.942;3.644;2023-06-22T08:57:32;101634.91;;;22.14;100.00
52949;BME280;38812;50.942;3.644;2023-06-22T08:59:58;101630.09;;;22.05;100.00
52949;BME280;38812;50.942;3.644;2023-06-22T09:02:27;101628.34;;;22.04;100.00
52949;BME280;38812;50.942;3.644;2023-06-22T09:04:57;101636.59;;;22.00;100.00
52949;BME280;38812;50.942;3.644;2023-06-22T09:07:23;101633.41;;;21.93;100.00
52949;BME280;38812;50.942;3.644;2023-06-22T09:09:50;101634.88;;;21.83;100.00
52949;BME280;38812;50.942;3.644;2023-06-22T09:12:16;101634.69;;;21.70;100.00
52949;BME280;38812;50.942;3.644;2023-06-22T09:14:41;101645.44;;;21.69;100.00
52949;BME280;38812;50.942;3.644;2023-06-22T09:17:07;101639.69;;;21.61;100.00
52949;BME280;38812;50.942;3.644;2023-06-22T09:19:32;101637.50;;;21.51;100.00
52949;BME280;38812;50.942;3.644;2023-06-22T09:21:58;101636.72;;;21.49;100.00
52949;BME280;38812;50.942;3.644;2023-06-22T09:24:23;101637.91;;;21.44;100.00
52949;BME280;38812;50.942;3.644;2023-06-22T09:26:49;101637.13;;;21.42;100.00
52949;BME280;38812;50.942;3.644;2023-06-22T09:29:15;101651.19;;;21.45;100.00
52949;BME280;38812;50.942;3.644;2023-06-22T09:31:40;101650.59;;;21.40;100.00
52949;BME280;38812;50.942;3.644;2023-06-22T09:34:06;101650.59;;;21.40;100.00
52949;BME280;38812;50.942;3.644;2023-06-22T09:36:31;101646.97;;;21.41;100.00
52949;BME280;38812;50.942;3.644;2023-06-22T09:38:57;101647.28;;;21.35;100.00
52949;BME280;38812;50.942;3.644;2023-06-22T09:47:33;101656.66;;;21.27;100.00
52949;BME280;38812;50.942;3.644;2023-06-22T09:49:59;101650.44;;;21.26;100.00
52949;BME280;38812;50.942;3.644;2023-06-22T09:52:25;101650.34;;;21.10;100.00
52949;BME280;38812;50.942;3.644;2023-06-22T09:54:50;101670.72;;;21.13;100.00
52949;BME280;38812;50.942;3.644;2023-06-22T09:57:16;101652.31;;;20.90;100.00
52949;BME280;38812;50.942;3.644;2023-06-22T09:59:41;101653.03;;;20.93;100.00
52949;BME280;38812;50.942;3.644;2023-06-22T10:02:07;101672.13;;;20.85;100.00
52949;BME280;38812;50.942;3.644;2023-06-22T10:04:36;101643.38;;;20.56;100.00
52949;BME280;38812;50.942;3.644;2023-06-22T10:07:02;101656.09;;;20.68;100.00
52949;BME280;38812;50.942;3.644;2023-06-22T10:09:28;101671.00;;;20.55;100.00
52949;BME280;38812;50.942;3.644;2023-06-22T10:11:53;101656.66;;;20.39;100.00
52949;BME280;38812;50.942;3.644;2023-06-22T10:14:18;101658.03;;;20.29;100.00
52949;BME280;38812;50.942;3.644;2023-06-22T10:16:44;101639.25;;;20.13;100.00
52949;BME280;38812;50.942;3.644;2023-06-22T10:19:09;101648.31;;;20.09;100.00
52949;BME280;38812;50.942;3.644;2023-06-22T10:21:35;101659.72;;;20.12;100.00
52949;BME280;38812;50.942;3.644;2023-06-22T10:24:01;101667.78;;;20.30;100.00
52949;BME280;38812;50.942;3.644;2023-06-22T10:26:32;101641.34;;;20.06;100.00
52949;BME280;38812;50.942;3.644;2023-06-22T10:28:57;101662.47;;;20.11;100.00
52949;BME280;38812;50.942;3.644;2023-06-22T10:31:23;101659.63;;;20.14;100.00
52949;BME280;38812;50.942;3.644;2023-06-22T10:33:48;101658.41;;;20.21;100.00
52949;BME280;38812;50.942;3.644;2023-06-22T10:36:14;101631.75;;;20.02;100.00
52949;BME280;38812;50.942;3.644;2023-06-22T10:38:40;101652.78;;;20.27;100.00
52949;BME280;38812;50.942;3.644;2023-06-22T10:41:05;101629.59;;;20.10;100.00
52949;BME280;38812;50.942;3.644;2023-06-22T10:43:31;101647.91;;;20.35;100.00
52949;BME280;38812;50.942;3.644;2023-06-22T10:45:56;101643.09;;;20.43;100.00
52949;BME280;38812;50.942;3.644;2023-06-22T10:48:21;101648.28;;;20.46;100.00
52949;BME280;38812;50.942;3.644;2023-06-22T10:50:47;101646.00;;;20.39;100.00
52949;BME280;38812;50.942;3.644;2023-06-22T10:53:12;101643.03;;;20.26;100.00
52949;BME280;38812;50.942;3.644;2023-06-22T10:55:37;101646.00;;;20.20;100.00
52949;BME280;38812;50.942;3.644;2023-06-22T10:58:03;101647.31;;;20.11;100.00
52949;BME280;38812;50.942;3.644;2023-06-22T11:00:28;101636.78;;;20.08;100.00
52949;BME280;38812;50.942;3.644;2023-06-22T11:02:54;101643.06;;;20.07;100.00
52949;BME280;38812;50.942;3.644;2023-06-22T11:05:19;101645.22;;;19.99;100.00
52949;BME280;38812;50.942;3.644;2023-06-22T11:07:44;101621.75;;;19.89;100.00
52949;BME280;38812;50.942;3.644;2023-06-22T11:10:11;101633.75;;;19.97;100.00
52949;BME280;38812;50.942;3.644;2023-06-22T11:12:37;101621.22;;;19.99;100.00
52949;BME280;38812;50.942;3.644;2023-06-22T11:15:02;101623.53;;;19.88;100.00
52949;BME280;38812;50.942;3.644;2023-06-22T11:17:28;101618.22;;;19.88;100.00
52949;BME280;38812;50.942;3.644;2023-06-22T11:19:53;101618.34;;;19.85;100.00
52949;BME280;38812;50.942;3.644;2023-06-22T11:22:19;101618.56;;;19.62;100.00
52949;BME280;38812;50.942;3.644;2023-06-22T11:24:44;101610.28;;;19.68;100.00
52949;BME280;38812;50.942;3.644;2023-06-22T11:27:10;101602.50;;;19.82;100.00
52949;BME280;38812;50.942;3.644;2023-06-22T11:29:35;101598.69;;;19.69;100.00
52949;BME280;38812;50.942;3.644;2023-06-22T11:32:01;101598.75;;;19.67;100.00
52949;BME280;38812;50.942;3.644;2023-06-22T11:34:26;101602.13;;;19.71;100.00
52949;BME280;38812;50.942;3.644;2023-06-22T11:36:53;101596.66;;;19.74;100.00
52949;BME280;38812;50.942;3.644;2023-06-22T11:39:18;101590.09;;;19.81;100.00
52949;BME280;38812;50.942;3.644;2023-06-22T11:41:44;101592.97;;;19.58;100.00
52949;BME280;38812;50.942;3.644;2023-06-22T11:44:09;101600.63;;;19.65;100.00
52949;BME280;38812;50.942;3.644;2023-06-22T11:46:34;101595.38;;;19.64;100.00
52949;BME280;38812;50.942;3.644;2023-06-22T11:49:01;101579.00;;;19.52;100.00
52949;BME280;38812;50.942;3.644;2023-06-22T11:51:27;101605.31;;;19.79;100.00
52949;BME280;38812;50.942;3.644;2023-06-22T11:53:53;101610.78;;;19.76;100.00
52949;BME280;38812;50.942;3.644;2023-06-22T11:56:19;101614.44;;;19.92;100.00
52949;BME280;38812;50.942;3.644;2023-06-22T11:58:44;101611.41;;;20.00;100.00
52949;BME280;38812;50.942;3.644;2023-06-22T12:01:09;101599.16;;;19.96;100.00
52949;BME280;38812;50.942;3.644;2023-06-22T12:03:35;101614.88;;;19.83;100.00
52949;BME280;38812;50.942;3.644;2023-06-22T12:06:00;101605.09;;;19.83;100.00
52949;BME280;38812;50.942;3.644;2023-06-22T12:08:26;101606.38;;;19.75;100.00
52949;BME280;38812;50.942;3.644;2023-06-22T12:10:51;101602.50;;;19.82;100.00
52949;BME280;38812;50.942;3.644;2023-06-22T12:13:18;101593.50;;;19.66;100.00
52949;BME280;38812;50.942;3.644;2023-06-22T12:15:44;101607.53;;;19.88;100.00
52949;BME280;38812;50.942;3.644;2023-06-22T12:18:09;101590.44;;;19.92;100.00
52949;BME280;38812;50.942;3.644;2023-06-22T12:20:35;101602.94;;;19.92;100.00
52949;BME280;38812;50.942;3.644;2023-06-22T12:23:01;101586.22;;;19.88;100.00
52949;BME280;38812;50.942;3.644;2023-06-22T12:25:26;101600.03;;;19.96;100.00
52949;BME280;38812;50.942;3.644;2023-06-22T12:27:51;101602.84;;;19.93;100.00
52949;BME280;38812;50.942;3.644;2023-06-22T12:30:17;101596.50;;;19.77;100.00
52949;BME280;38812;50.942;3.644;2023-06-22T12:32:42;101600.44;;;19.70;100.00
52949;BME280;38812;50.942;3.644;2023-06-22T12:35:08;101599.66;;;19.47;100.00
52949;BME280;38812;50.942;3.644;2023-06-22T12:37:41;101598.03;;;19.64;100.00
52949;BME280;38812;50.942;3.644;2023-06-22T12:40:08;101597.59;;;19.73;100.00
52949;BME280;38812;50.942;3.644;2023-06-22T12:42:33;101567.03;;;19.42;100.00
52949;BME280;38812;50.942;3.644;2023-06-22T12:44:58;101558.56;;;19.33;100.00
52949;BME280;38812;50.942;3.644;2023-06-22T12:47:24;101597.47;;;19.37;100.00
52949;BME280;38812;50.942;3.644;2023-06-22T12:49:49;101597.38;;;19.20;100.00